sensor_id;sensor_type;location;lat;lon;timestamp;temperature;humidity
13186;DHT22;6658;53.080;7.428;2023-07-29T00:00:43;17.80;99.90
13186;DHT22;6658;53.080;7.428;2023-07-29T00:03:09;17.70;99.90
13186;DHT22;6658;53.080;7.428;2023-07-29T00:05:36;17.60;99.90
13186;DHT22;6658;53.080;7.428;2023-07-29T00:08:02;17.60;99.90
13186;DHT22;6658;53.080;7.428;2023-07-29T00:10:27;17.60;99.90
13186;DHT22;6658;53.080;7.428;2023-07-29T00:12:53;17.50;99.90
13186;DHT22;6658;53.080;7.428;2023-07-29T00:15:19;17.50;99.90
13186;DHT22;6658;53.080;7.428;2023-07-29T00:17:44;17.40;99.90
13186;DHT22;6658;53.080;7.428;2023-07-29T00:20:10;17.40;99.90
13186;DHT22;6658;53.080;7.428;2023-07-29T00:22:36;17.40;99.90
13186;DHT22;6658;53.080;7.428;2023-07-29T00:25:02;17.30;99.90
13186;DHT22;6658;53.080;7.428;2023-07-29T00:27:27;17.30;99.90
13186;DHT22;6658;53.080;7.428;2023-07-29T00:29:53;17.30;99.90
13186;DHT22;6658;53.080;7.428;2023-07-29T00:32:19;17.20;99.90
13186;DHT22;6658;53.080;7.428;2023-07-29T00:34:45;17.20;99.90
13186;DHT22;6658;53.080;7.428;2023-07-29T00:37:10;17.20;99.90
13186;DHT22;6658;53.080;7.428;2023-07-29T00:39:37;17.10;99.90
13186;DHT22;6658;53.080;7.428;2023-07-29T00:42:03;17.10;99.90
13186;DHT22;6658;53.080;7.428;2023-07-29T00:44:29;17.00;99.90
13186;DHT22;6658;53.080;7.428;2023-07-29T00:46:57;17.00;99.90
13186;DHT22;6658;53.080;7.428;2023-07-29T00:49:24;17.00;99.90
13186;DHT22;6658;53.080;7.428;2023-07-29T00:51:50;17.00;99.90
13186;DHT22;6658;53.080;7.428;2023-07-29T00:54:16;17.00;99.90
13186;DHT22;6658;53.080;7.428;2023-07-29T00:56:42;17.00;99.90
13186;DHT22;6658;53.080;7.428;2023-07-29T00:59:08;17.00;99.90
13186;DHT22;6658;53.080;7.428;2023-07-29T01:01:34;16.90;99.90
13186;DHT22;6658;53.080;7.428;2023-07-29T01:03:59;16.90;99.90
13186;DHT22;6658;53.080;7.428;2023-07-29T01:14:49;17.10;99.90
13186;DHT22;6658;53.080;7.428;2023-07-29T01:17:23;17.10;99.90
13186;DHT22;6658;53.080;7.428;2023-07-29T01:22:24;17.20;99.90
13186;DHT22;6658;53.080;7.428;2023-07-29T01:24:50;17.30;99.90
13186;DHT22;6658;53.080;7.428;2023-07-29T01:27:15;17.30;99.90
13186;DHT22;6658;53.080;7.428;2023-07-29T01:29:41;17.40;99.90
13186;DHT22;6658;53.080;7.428;2023-07-29T01:32:11;17.40;99.90
13186;DHT22;6658;53.080;7.428;2023-07-29T01:34:45;17.40;99.90
13186;DHT22;6658;53.080;7.428;2023-07-29T01:37:16;17.40;99.90
13186;DHT22;6658;53.080;7.428;2023-07-29T01:39:45;17.50;99.90
13186;DHT22;6658;53.080;7.428;2023-07-29T01:42:12;17.50;99.90
13186;DHT22;6658;53.080;7.428;2023-07-29T01:44:37;17.50;99.90
13186;DHT22;6658;53.080;7.428;2023-07-29T01:47:03;17.50;99.90
13186;DHT22;6658;53.080;7.428;2023-07-29T01:49:29;17.40;99.90
13186;DHT22;6658;53.080;7.428;2023-07-29T01:51:55;17.40;99.90
13186;DHT22;6658;53.080;7.428;2023-07-29T01:54:20;17.30;99.90
13186;DHT22;6658;53.080;7.428;2023-07-29T01:56:46;17.20;99.90
13186;DHT22;6658;53.080;7.428;2023-07-29T01:59:11;17.20;99.90
13186;DHT22;6658;53.080;7.428;2023-07-29T02:01:38;17.10;99.90
13186;DHT22;6658;53.080;7.428;2023-07-29T02:04:04;17.00;99.90
13186;DHT22;6658;53.080;7.428;2023-07-29T02:06:30;17.00;99.90
13186;DHT22;6658;53.080;7.428;2023-07-29T02:08:55;16.90;99.90
13186;DHT22;6658;53.080;7.428;2023-07-29T02:11:21;16.90;99.90
13186;DHT22;6658;53.080;7.428;2023-07-29T02:13:55;16.90;99.90
13186;DHT22;6658;53.080;7.428;2023-07-29T02:16:21;16.90;99.90
13186;DHT22;6658;53.080;7.428;2023-07-29T02:18:48;16.90;99.90
13186;DHT22;6658;53.080;7.428;2023-07-29T02:21:15;16.80;99.90
13186;DHT22;6658;53.080;7.428;2023-07-29T02:23:41;16.80;99.90
13186;DHT22;6658;53.080;7.428;2023-07-29T02:26:06;16.80;99.90
13186;DHT22;6658;53.080;7.428;2023-07-29T02:28:32;16.80;99.90
13186;DHT22;6658;53.080;7.428;2023-07-29T02:31:21;16.80;99.90
13186;DHT22;6658;53.080;7.428;2023-07-29T02:33:47;16.70;99.90
13186;DHT22;6658;53.080;7.428;2023-07-29T02:36:13;16.70;99.90
13186;DHT22;6658;53.080;7.428;2023-07-29T02:38:40;16.60;99.90
13186;DHT22;6658;53.080;7.428;2023-07-29T02:41:06;16.60;99.90
13186;DHT22;6658;53.080;7.428;2023-07-29T02:43:31;16.60;99.90
13186;DHT22;6658;53.080;7.428;2023-07-29T02:45:57;16.60;99.90
13186;DHT22;6658;53.080;7.428;2023-07-29T02:48:24;16.50;99.90
13186;DHT22;6658;53.080;7.428;2023-07-29T02:50:50;16.50;99.90
13186;DHT22;6658;53.080;7.428;2023-07-29T02:53:17;16.50;99.90
13186;DHT22;6658;53.080;7.428;2023-07-29T02:55:43;16.50;99.90
13186;DHT22;6658;53.080;7.428;2023-07-29T02:58:08;16.50;99.90
13186;DHT22;6658;53.080;7.428;2023-07-29T03:00:34;16.50;99.90
13186;DHT22;6658;53.080;7.428;2023-07-29T03:03:00;16.50;99.90
13186;DHT22;6658;53.080;7.428;2023-07-29T03:05:29;16.50;99.90
13186;DHT22;6658;53.080;7.428;2023-07-29T03:07:55;16.50;99.90
13186;DHT22;6658;53.080;7.428;2023-07-29T03:10:21;16.50;99.90
13186;DHT22;6658;53.080;7.428;2023-07-29T03:12:47;16.50;99.90
13186;DHT22;6658;53.080;7.428;2023-07-29T03:15:13;16.60;99.90
13186;DHT22;6658;53.080;7.428;2023-07-29T03:17:39;16.60;99.90
13186;DHT22;6658;53.080;7.428;2023-07-29T03:20:05;16.60;99.90
13186;DHT22;6658;53.080;7.428;2023-07-29T03:22:31;16.60;99.90
13186;DHT22;6658;53.080;7.428;2023-07-29T03:24:56;16.60;99.90
13186;DHT22;6658;53.080;7.428;2023-07-29T03:27:22;16.60;99.90
13186;DHT22;6658;53.080;7.428;2023-07-29T03:29:48;16.50;99.90
13186;DHT22;6658;53.080;7.428;2023-07-29T03:32:14;16.50;99.90
13186;DHT22;6658;53.080;7.428;2023-07-29T03:34:39;16.50;99.90
13186;DHT22;6658;53.080;7.428;2023-07-29T03:37:05;16.40;99.90
13186;DHT22;6658;53.080;7.428;2023-07-29T03:39:32;16.40;99.90
13186;DHT22;6658;53.080;7.428;2023-07-29T03:41:58;16.40;99.90
13186;DHT22;6658;53.080;7.428;2023-07-29T03:44:23;16.40;99.90
13186;DHT22;6658;53.080;7.428;2023-07-29T03:46:49;16.50;99.90
13186;DHT22;6658;53.080;7.428;2023-07-29T03:49:15;16.50;99.90
13186;DHT22;6658;53.080;7.428;2023-07-29T03:51:40;16.50;99.90
13186;DHT22;6658;53.080;7.428;2023-07-29T03:54:06;16.50;99.90
13186;DHT22;6658;53.080;7.428;2023-07-29T03:56:32;16.50;99.90
13186;DHT22;6658;53.080;7.428;2023-07-29T03:59:05;16.50;99.90
13186;DHT22;6658;53.080;7.428;2023-07-29T04:01:31;16.60;99.90
13186;DHT22;6658;53.080;7.428;2023-07-29T04:03:57;16.60;99.90
13186;DHT22;6658;53.080;7.428;2023-07-29T04:06:23;16.60;99.90
13186;DHT22;6658;53.080;7.428;2023-07-29T04:08:49;16.70;99.90
13186;DHT22;6658;53.080;7.428;2023-07-29T04:11:15;16.70;99.90
13186;DHT22;6658;53.080;7.428;2023-07-29T04:13:40;16.70;99.90
13186;DHT22;6658;53.080;7.428;2023-07-29T04:16:06;16.70;99.90
13186;DHT22;6658;53.080;7.428;2023-07-29T04:18:32;16.70;99.90
13186;DHT22;6658;53.080;7.428;2023-07-29T04:20:58;16.70;99.90
13186;DHT22;6658;53.080;7.428;2023-07-29T04:23:24;16.80;99.90
13186;DHT22;6658;53.080;7.428;2023-07-29T04:25:49;16.80;99.90
13186;DHT22;6658;53.080;7.428;2023-07-29T04:28:15;16.80;99.90
13186;DHT22;6658;53.080;7.428;2023-07-29T04:30:41;16.80;99.90
13186;DHT22;6658;53.080;7.428;2023-07-29T04:33:07;16.90;99.90
13186;DHT22;6658;53.080;7.428;2023-07-29T04:35:32;16.90;99.90
13186;DHT22;6658;53.080;7.428;2023-07-29T04:37:58;17.00;99.90
13186;DHT22;6658;53.080;7.428;2023-07-29T04:40:24;17.00;99.90
13186;DHT22;6658;53.080;7.428;2023-07-29T04:42:50;17.10;99.90
13186;DHT22;6658;53.080;7.428;2023-07-29T04:45:16;17.10;99.90
13186;DHT22;6658;53.080;7.428;2023-07-29T04:47:42;17.20;99.90
13186;DHT22;6658;53.080;7.428;2023-07-29T04:50:08;17.30;99.90
13186;DHT22;6658;53.080;7.428;2023-07-29T04:52:34;17.40;99.90
13186;DHT22;6658;53.080;7.428;2023-07-29T04:55:00;17.40;99.90
13186;DHT22;6658;53.080;7.428;2023-07-29T04:57:25;17.40;99.90
13186;DHT22;6658;53.080;7.428;2023-07-29T04:59:51;17.50;99.90
13186;DHT22;6658;53.080;7.428;2023-07-29T05:02:17;17.50;99.90
13186;DHT22;6658;53.080;7.428;2023-07-29T05:04:42;17.50;99.90
13186;DHT22;6658;53.080;7.428;2023-07-29T05:07:08;17.50;99.90
13186;DHT22;6658;53.080;7.428;2023-07-29T05:09:34;17.60;99.90
13186;DHT22;6658;53.080;7.428;2023-07-29T05:12:00;17.60;99.90
13186;DHT22;6658;53.080;7.428;2023-07-29T05:14:26;17.70;99.90
13186;DHT22;6658;53.080;7.428;2023-07-29T05:16:51;17.80;99.90
13186;DHT22;6658;53.080;7.428;2023-07-29T05:19:17;17.90;99.90
13186;DHT22;6658;53.080;7.428;2023-07-29T05:21:43;18.10;99.90
13186;DHT22;6658;53.080;7.428;2023-07-29T05:24:09;18.20;99.90
13186;DHT22;6658;53.080;7.428;2023-07-29T05:26:35;18.30;99.90
13186;DHT22;6658;53.080;7.428;2023-07-29T05:29:00;18.40;99.90
13186;DHT22;6658;53.080;7.428;2023-07-29T05:31:26;18.50;99.90
13186;DHT22;6658;53.080;7.428;2023-07-29T05:33:53;18.50;99.90
13186;DHT22;6658;53.080;7.428;2023-07-29T05:36:18;18.60;99.90
13186;DHT22;6658;53.080;7.428;2023-07-29T05:38:44;18.60;99.90
13186;DHT22;6658;53.080;7.428;2023-07-29T05:41:10;18.70;99.90
13186;DHT22;6658;53.080;7.428;2023-07-29T05:43:35;18.70;99.90
13186;DHT22;6658;53.080;7.428;2023-07-29T05:46:01;18.70;99.90
13186;DHT22;6658;53.080;7.428;2023-07-29T05:48:27;18.70;99.90
13186;DHT22;6658;53.080;7.428;2023-07-29T05:50:53;18.70;99.90
13186;DHT22;6658;53.080;7.428;2023-07-29T05:53:19;18.70;99.90
13186;DHT22;6658;53.080;7.428;2023-07-29T05:55:44;18.80;99.90
13186;DHT22;6658;53.080;7.428;2023-07-29T05:58:10;18.70;99.90
13186;DHT22;6658;53.080;7.428;2023-07-29T06:00:36;18.70;99.90
13186;DHT22;6658;53.080;7.428;2023-07-29T06:03:02;18.70;99.90
13186;DHT22;6658;53.080;7.428;2023-07-29T06:05:27;18.70;99.90
13186;DHT22;6658;53.080;7.428;2023-07-29T06:07:53;18.70;99.90
13186;DHT22;6658;53.080;7.428;2023-07-29T06:10:19;18.70;99.90
13186;DHT22;6658;53.080;7.428;2023-07-29T06:12:45;18.70;99.90
13186;DHT22;6658;53.080;7.428;2023-07-29T06:15:11;18.80;99.90
13186;DHT22;6658;53.080;7.428;2023-07-29T06:17:38;19.00;99.90
13186;DHT22;6658;53.080;7.428;2023-07-29T06:20:04;19.00;99.90
13186;DHT22;6658;53.080;7.428;2023-07-29T06:22:31;19.10;99.90
13186;DHT22;6658;53.080;7.428;2023-07-29T06:24:57;19.10;99.90
13186;DHT22;6658;53.080;7.428;2023-07-29T06:27:23;19.20;99.90
13186;DHT22;6658;53.080;7.428;2023-07-29T06:29:50;19.30;99.90
13186;DHT22;6658;53.080;7.428;2023-07-29T06:32:15;19.40;99.90
13186;DHT22;6658;53.080;7.428;2023-07-29T06:34:41;19.40;99.90
13186;DHT22;6658;53.080;7.428;2023-07-29T06:37:07;19.40;99.90
13186;DHT22;6658;53.080;7.428;2023-07-29T06:39:32;19.40;99.90
13186;DHT22;6658;53.080;7.428;2023-07-29T06:41:58;19.50;99.90
13186;DHT22;6658;53.080;7.428;2023-07-29T06:44:24;19.60;99.90
13186;DHT22;6658;53.080;7.428;2023-07-29T06:46:49;19.70;99.90
13186;DHT22;6658;53.080;7.428;2023-07-29T06:49:15;19.80;99.90
13186;DHT22;6658;53.080;7.428;2023-07-29T06:51:41;19.90;99.90
13186;DHT22;6658;53.080;7.428;2023-07-29T06:54:06;20.20;99.90
13186;DHT22;6658;53.080;7.428;2023-07-29T06:56:32;20.40;99.90
13186;DHT22;6658;53.080;7.428;2023-07-29T06:58:58;20.50;99.90
13186;DHT22;6658;53.080;7.428;2023-07-29T07:01:23;20.70;99.90
13186;DHT22;6658;53.080;7.428;2023-07-29T07:03:49;20.90;99.90
13186;DHT22;6658;53.080;7.428;2023-07-29T07:06:15;20.90;99.90
13186;DHT22;6658;53.080;7.428;2023-07-29T07:08:40;20.90;99.90
13186;DHT22;6658;53.080;7.428;2023-07-29T07:11:07;20.90;99.90
13186;DHT22;6658;53.080;7.428;2023-07-29T07:13:33;20.90;99.90
13186;DHT22;6658;53.080;7.428;2023-07-29T07:15:59;20.80;99.90
13186;DHT22;6658;53.080;7.428;2023-07-29T07:18:24;20.80;99.90
13186;DHT22;6658;53.080;7.428;2023-07-29T07:20:50;21.00;99.90
13186;DHT22;6658;53.080;7.428;2023-07-29T07:23:17;21.50;99.90
13186;DHT22;6658;53.080;7.428;2023-07-29T07:25:43;21.80;99.90
13186;DHT22;6658;53.080;7.428;2023-07-29T07:28:09;21.90;99.90
13186;DHT22;6658;53.080;7.428;2023-07-29T07:30:39;22.10;99.90
13186;DHT22;6658;53.080;7.428;2023-07-29T07:33:04;22.40;99.90
13186;DHT22;6658;53.080;7.428;2023-07-29T07:35:30;22.70;99.90
13186;DHT22;6658;53.080;7.428;2023-07-29T07:37:56;22.90;99.90
13186;DHT22;6658;53.080;7.428;2023-07-29T07:40:21;23.10;99.90
13186;DHT22;6658;53.080;7.428;2023-07-29T07:42:47;23.30;99.90
13186;DHT22;6658;53.080;7.428;2023-07-29T07:45:13;23.20;99.90
13186;DHT22;6658;53.080;7.428;2023-07-29T07:47:38;23.10;99.90
13186;DHT22;6658;53.080;7.428;2023-07-29T07:50:04;23.00;99.90
13186;DHT22;6658;53.080;7.428;2023-07-29T07:52:30;22.90;99.90
13186;DHT22;6658;53.080;7.428;2023-07-29T07:54:56;22.90;99.90
13186;DHT22;6658;53.080;7.428;2023-07-29T07:57:21;22.70;99.90
13186;DHT22;6658;53.080;7.428;2023-07-29T07:59:47;22.30;99.90
13186;DHT22;6658;53.080;7.428;2023-07-29T08:02:13;22.10;99.90
13186;DHT22;6658;53.080;7.428;2023-07-29T08:04:39;21.80;99.90
13186;DHT22;6658;53.080;7.428;2023-07-29T08:07:05;21.60;99.90
13186;DHT22;6658;53.080;7.428;2023-07-29T08:09:30;21.70;99.90
13186;DHT22;6658;53.080;7.428;2023-07-29T08:11:56;21.70;99.90
13186;DHT22;6658;53.080;7.428;2023-07-29T08:14:22;21.80;99.90
13186;DHT22;6658;53.080;7.428;2023-07-29T08:16:47;21.80;99.90
13186;DHT22;6658;53.080;7.428;2023-07-29T08:19:13;21.70;99.90
13186;DHT22;6658;53.080;7.428;2023-07-29T08:21:39;21.60;99.90
13186;DHT22;6658;53.080;7.428;2023-07-29T08:24:05;21.50;99.90
13186;DHT22;6658;53.080;7.428;2023-07-29T08:26:32;21.60;99.90
13186;DHT22;6658;53.080;7.428;2023-07-29T08:28:57;21.60;99.90
13186;DHT22;6658;53.080;7.428;2023-07-29T08:31:23;21.60;99.90
13186;DHT22;6658;53.080;7.428;2023-07-29T08:33:49;21.70;99.90
13186;DHT22;6658;53.080;7.428;2023-07-29T08:36:14;22.30;99.90
13186;DHT22;6658;53.080;7.428;2023-07-29T08:38:40;22.70;99.90
13186;DHT22;6658;53.080;7.428;2023-07-29T08:44:09;22.90;99.90
13186;DHT22;6658;53.080;7.428;2023-07-29T08:46:38;22.90;99.90
13186;DHT22;6658;53.080;7.428;2023-07-29T08:49:04;23.10;99.90
13186;DHT22;6658;53.080;7.428;2023-07-29T08:51:31;23.10;99.90
13186;DHT22;6658;53.080;7.428;2023-07-29T08:53:58;23.10;99.90
13186;DHT22;6658;53.080;7.428;2023-07-29T08:56:24;22.90;99.90
13186;DHT22;6658;53.080;7.428;2023-07-29T08:58:51;22.60;99.90
13186;DHT22;6658;53.080;7.428;2023-07-29T09:01:17;22.40;99.90
13186;DHT22;6658;53.080;7.428;2023-07-29T09:03:43;22.50;99.90
13186;DHT22;6658;53.080;7.428;2023-07-29T09:06:09;22.80;99.90
13186;DHT22;6658;53.080;7.428;2023-07-29T09:08:35;23.20;99.90
13186;DHT22;6658;53.080;7.428;2023-07-29T09:11:01;23.20;99.90
13186;DHT22;6658;53.080;7.428;2023-07-29T09:13:27;23.10;99.90
13186;DHT22;6658;53.080;7.428;2023-07-29T09:15:57;22.90;99.90
13186;DHT22;6658;53.080;7.428;2023-07-29T09:18:23;22.90;99.90
13186;DHT22;6658;53.080;7.428;2023-07-29T09:20:51;23.00;99.90
13186;DHT22;6658;53.080;7.428;2023-07-29T09:23:16;23.20;99.90
13186;DHT22;6658;53.080;7.428;2023-07-29T09:25:43;23.40;99.90
13186;DHT22;6658;53.080;7.428;2023-07-29T09:28:13;23.60;99.90
13186;DHT22;6658;53.080;7.428;2023-07-29T09:30:40;23.80;99.90
13186;DHT22;6658;53.080;7.428;2023-07-29T09:33:06;23.70;99.90
13186;DHT22;6658;53.080;7.428;2023-07-29T09:35:37;23.40;99.90
13186;DHT22;6658;53.080;7.428;2023-07-29T09:38:06;23.10;99.90
13186;DHT22;6658;53.080;7.428;2023-07-29T09:40:39;23.00;99.90
13186;DHT22;6658;53.080;7.428;2023-07-29T09:43:06;23.00;99.90
13186;DHT22;6658;53.080;7.428;2023-07-29T09:45:37;23.00;99.90
13186;DHT22;6658;53.080;7.428;2023-07-29T09:48:04;23.10;99.90
13186;DHT22;6658;53.080;7.428;2023-07-29T09:50:35;23.40;99.90
13186;DHT22;6658;53.080;7.428;2023-07-29T09:53:02;24.10;99.90
13186;DHT22;6658;53.080;7.428;2023-07-29T09:55:29;25.20;99.90
13186;DHT22;6658;53.080;7.428;2023-07-29T09:57:59;25.70;99.90
13186;DHT22;6658;53.080;7.428;2023-07-29T10:00:30;25.90;99.90
13186;DHT22;6658;53.080;7.428;2023-07-29T10:02:57;25.80;99.90
13186;DHT22;6658;53.080;7.428;2023-07-29T10:05:25;25.70;99.90
13186;DHT22;6658;53.080;7.428;2023-07-29T10:07:50;25.40;99.90
13186;DHT22;6658;53.080;7.428;2023-07-29T10:10:17;24.90;99.90
13186;DHT22;6658;53.080;7.428;2023-07-29T10:12:43;24.60;99.90
13186;DHT22;6658;53.080;7.428;2023-07-29T10:15:09;24.20;99.90
13186;DHT22;6658;53.080;7.428;2023-07-29T10:17:36;23.90;99.90
13186;DHT22;6658;53.080;7.428;2023-07-29T10:20:10;23.90;99.90
13186;DHT22;6658;53.080;7.428;2023-07-29T10:22:40;24.00;99.90
13186;DHT22;6658;53.080;7.428;2023-07-29T10:25:16;24.10;99.90
13186;DHT22;6658;53.080;7.428;2023-07-29T10:28:05;24.40;99.90
13186;DHT22;6658;53.080;7.428;2023-07-29T10:30:31;24.90;99.90
13186;DHT22;6658;53.080;7.428;2023-07-29T10:33:03;25.30;99.90
13186;DHT22;6658;53.080;7.428;2023-07-29T10:35:30;26.10;99.90
13186;DHT22;6658;53.080;7.428;2023-07-29T10:37:57;26.70;99.90
13186;DHT22;6658;53.080;7.428;2023-07-29T10:40:23;27.20;99.90
13186;DHT22;6658;53.080;7.428;2023-07-29T10:43:11;27.00;99.90
13186;DHT22;6658;53.080;7.428;2023-07-29T10:45:39;27.50;99.90
13186;DHT22;6658;53.080;7.428;2023-07-29T10:51:25;27.40;99.90
13186;DHT22;6658;53.080;7.428;2023-07-29T10:53:59;27.10;99.90
13186;DHT22;6658;53.080;7.428;2023-07-29T10:56:34;27.20;99.90
13186;DHT22;6658;53.080;7.428;2023-07-29T11:01:40;26.30;99.90
13186;DHT22;6658;53.080;7.428;2023-07-29T11:12:36;26.00;99.90
13186;DHT22;6658;53.080;7.428;2023-07-29T11:17:32;26.10;99.90
13186;DHT22;6658;53.080;7.428;2023-07-29T11:20:01;26.10;99.90
13186;DHT22;6658;53.080;7.428;2023-07-29T11:22:27;26.10;99.90
13186;DHT22;6658;53.080;7.428;2023-07-29T11:24:53;26.10;99.90
13186;DHT22;6658;53.080;7.428;2023-07-29T11:27:19;25.80;99.90
13186;DHT22;6658;53.080;7.428;2023-07-29T11:29:45;25.80;99.90
13186;DHT22;6658;53.080;7.428;2023-07-29T11:32:11;25.80;99.90
13186;DHT22;6658;53.080;7.428;2023-07-29T11:34:37;26.00;99.90
13186;DHT22;6658;53.080;7.428;2023-07-29T11:37:03;26.30;99.90
13186;DHT22;6658;53.080;7.428;2023-07-29T11:39:32;26.50;99.90
13186;DHT22;6658;53.080;7.428;2023-07-29T11:41:58;26.70;99.90
13186;DHT22;6658;53.080;7.428;2023-07-29T11:44:24;26.80;99.90
13186;DHT22;6658;53.080;7.428;2023-07-29T11:46:50;27.00;99.90
13186;DHT22;6658;53.080;7.428;2023-07-29T11:49:16;27.00;99.90
13186;DHT22;6658;53.080;7.428;2023-07-29T11:51:42;27.10;99.90
13186;DHT22;6658;53.080;7.428;2023-07-29T11:54:08;27.20;99.90
13186;DHT22;6658;53.080;7.428;2023-07-29T11:56:35;27.20;99.90
13186;DHT22;6658;53.080;7.428;2023-07-29T11:59:01;27.40;99.90
13186;DHT22;6658;53.080;7.428;2023-07-29T12:01:28;27.60;99.90
13186;DHT22;6658;53.080;7.428;2023-07-29T12:03:55;27.40;99.90
13186;DHT22;6658;53.080;7.428;2023-07-29T12:06:23;27.10;99.90
13186;DHT22;6658;53.080;7.428;2023-07-29T12:08:50;26.90;99.90
13186;DHT22;6658;53.080;7.428;2023-07-29T12:11:16;26.70;99.90
13186;DHT22;6658;53.080;7.428;2023-07-29T12:13:43;26.30;99.90
13186;DHT22;6658;53.080;7.428;2023-07-29T12:16:09;26.10;99.90
13186;DHT22;6658;53.080;7.428;2023-07-29T12:18:36;26.00;99.90
13186;DHT22;6658;53.080;7.428;2023-07-29T12:21:02;25.90;99.90
13186;DHT22;6658;53.080;7.428;2023-07-29T12:23:29;25.60;99.90
13186;DHT22;6658;53.080;7.428;2023-07-29T12:25:59;25.10;99.90
13186;DHT22;6658;53.080;7.428;2023-07-29T12:28:25;24.20;99.90
13186;DHT22;6658;53.080;7.428;2023-07-29T12:30:55;23.00;99.90
13186;DHT22;6658;53.080;7.428;2023-07-29T12:33:36;22.30;99.90
13186;DHT22;6658;53.080;7.428;2023-07-29T12:36:07;22.00;99.90
13186;DHT22;6658;53.080;7.428;2023-07-29T12:38:33;22.10;99.90
13186;DHT22;6658;53.080;7.428;2023-07-29T12:40:59;22.30;99.90
13186;DHT22;6658;53.080;7.428;2023-07-29T12:43:25;22.50;99.90
13186;DHT22;6658;53.080;7.428;2023-07-29T12:45:51;22.60;99.90
13186;DHT22;6658;53.080;7.428;2023-07-29T12:48:17;22.60;99.90
13186;DHT22;6658;53.080;7.428;2023-07-29T12:50:43;22.70;99.90
13186;DHT22;6658;53.080;7.428;2023-07-29T12:53:09;22.70;99.90
13186;DHT22;6658;53.080;7.428;2023-07-29T12:55:38;22.80;99.90
13186;DHT22;6658;53.080;7.428;2023-07-29T12:58:04;22.90;99.90
13186;DHT22;6658;53.080;7.428;2023-07-29T13:00:30;23.00;99.90
13186;DHT22;6658;53.080;7.428;2023-07-29T13:02:56;23.10;99.90
13186;DHT22;6658;53.080;7.428;2023-07-29T13:05:22;23.30;99.90
13186;DHT22;6658;53.080;7.428;2023-07-29T13:07:48;23.60;99.90
13186;DHT22;6658;53.080;7.428;2023-07-29T13:10:13;23.80;99.90
13186;DHT22;6658;53.080;7.428;2023-07-29T13:12:39;24.00;99.90
13186;DHT22;6658;53.080;7.428;2023-07-29T13:15:06;24.00;99.90
13186;DHT22;6658;53.080;7.428;2023-07-29T13:17:32;23.80;99.90
13186;DHT22;6658;53.080;7.428;2023-07-29T13:19:58;23.80;99.90
13186;DHT22;6658;53.080;7.428;2023-07-29T13:22:24;24.00;99.90
13186;DHT22;6658;53.080;7.428;2023-07-29T13:24:49;24.10;99.90
13186;DHT22;6658;53.080;7.428;2023-07-29T13:27:16;24.20;99.90
13186;DHT22;6658;53.080;7.428;2023-07-29T13:29:41;24.30;99.90
13186;DHT22;6658;53.080;7.428;2023-07-29T13:32:09;24.40;99.90
13186;DHT22;6658;53.080;7.428;2023-07-29T13:34:34;24.50;99.90
13186;DHT22;6658;53.080;7.428;2023-07-29T13:37:00;24.40;99.90
13186;DHT22;6658;53.080;7.428;2023-07-29T13:39:26;24.40;99.90
13186;DHT22;6658;53.080;7.428;2023-07-29T13:41:53;24.50;99.90
13186;DHT22;6658;53.080;7.428;2023-07-29T13:44:19;24.50;99.90
13186;DHT22;6658;53.080;7.428;2023-07-29T13:46:44;24.60;99.90
13186;DHT22;6658;53.080;7.428;2023-07-29T13:49:10;24.60;99.90
13186;DHT22;6658;53.080;7.428;2023-07-29T13:51:36;24.60;99.90
13186;DHT22;6658;53.080;7.428;2023-07-29T13:54:02;24.70;99.90
13186;DHT22;6658;53.080;7.428;2023-07-29T13:56:28;24.70;99.90
13186;DHT22;6658;53.080;7.428;2023-07-29T13:58:53;24.80;99.90
13186;DHT22;6658;53.080;7.428;2023-07-29T14:01:19;24.70;99.90
13186;DHT22;6658;53.080;7.428;2023-07-29T14:03:45;24.70;99.90
13186;DHT22;6658;53.080;7.428;2023-07-29T14:06:10;24.50;99.90
13186;DHT22;6658;53.080;7.428;2023-07-29T14:08:36;24.30;99.90
13186;DHT22;6658;53.080;7.428;2023-07-29T14:11:02;24.10;99.90
13186;DHT22;6658;53.080;7.428;2023-07-29T14:13:27;24.10;99.90
13186;DHT22;6658;53.080;7.428;2023-07-29T14:15:53;24.20;99.90
13186;DHT22;6658;53.080;7.428;2023-07-29T14:18:19;24.40;99.90
13186;DHT22;6658;53.080;7.428;2023-07-29T14:20:45;24.60;99.90
13186;DHT22;6658;53.080;7.428;2023-07-29T14:23:11;24.70;99.90
13186;DHT22;6658;53.080;7.428;2023-07-29T14:25:36;24.70;99.90
13186;DHT22;6658;53.080;7.428;2023-07-29T14:28:02;24.80;99.90
13186;DHT22;6658;53.080;7.428;2023-07-29T14:30:28;24.70;99.90
13186;DHT22;6658;53.080;7.428;2023-07-29T14:32:53;24.70;99.90
13186;DHT22;6658;53.080;7.428;2023-07-29T14:35:19;24.60;99.90
13186;DHT22;6658;53.080;7.428;2023-07-29T14:37:45;24.40;99.90
13186;DHT22;6658;53.080;7.428;2023-07-29T14:40:10;24.40;99.90
13186;DHT22;6658;53.080;7.428;2023-07-29T14:42:36;24.30;99.90
13186;DHT22;6658;53.080;7.428;2023-07-29T14:45:02;24.20;99.90
13186;DHT22;6658;53.080;7.428;2023-07-29T14:47:27;24.20;99.90
13186;DHT22;6658;53.080;7.428;2023-07-29T14:49:53;24.10;99.90
13186;DHT22;6658;53.080;7.428;2023-07-29T14:52:19;24.00;99.90
13186;DHT22;6658;53.080;7.428;2023-07-29T14:54:44;23.70;99.90
13186;DHT22;6658;53.080;7.428;2023-07-29T14:57:10;23.40;99.90
13186;DHT22;6658;53.080;7.428;2023-07-29T14:59:36;23.00;99.90
13186;DHT22;6658;53.080;7.428;2023-07-29T15:02:02;22.70;99.90
13186;DHT22;6658;53.080;7.428;2023-07-29T15:04:28;22.50;99.90
13186;DHT22;6658;53.080;7.428;2023-07-29T15:06:53;22.50;99.90
13186;DHT22;6658;53.080;7.428;2023-07-29T15:09:19;22.40;99.90
13186;DHT22;6658;53.080;7.428;2023-07-29T15:11:45;22.30;99.90
13186;DHT22;6658;53.080;7.428;2023-07-29T15:14:10;22.30;99.90
13186;DHT22;6658;53.080;7.428;2023-07-29T15:16:36;22.40;99.90
13186;DHT22;6658;53.080;7.428;2023-07-29T15:19:04;22.60;99.90
13186;DHT22;6658;53.080;7.428;2023-07-29T15:21:30;22.80;99.90
13186;DHT22;6658;53.080;7.428;2023-07-29T15:23:56;22.90;99.90
13186;DHT22;6658;53.080;7.428;2023-07-29T15:26:21;23.00;99.90
13186;DHT22;6658;53.080;7.428;2023-07-29T15:28:47;22.90;99.90
13186;DHT22;6658;53.080;7.428;2023-07-29T15:31:13;22.80;99.90
13186;DHT22;6658;53.080;7.428;2023-07-29T15:33:39;22.70;99.90
13186;DHT22;6658;53.080;7.428;2023-07-29T15:36:04;22.50;99.90
13186;DHT22;6658;53.080;7.428;2023-07-29T15:38:30;22.40;99.90
13186;DHT22;6658;53.080;7.428;2023-07-29T15:40:56;22.40;99.90
13186;DHT22;6658;53.080;7.428;2023-07-29T15:43:22;22.40;99.90
13186;DHT22;6658;53.080;7.428;2023-07-29T15:45:49;22.40;99.90
13186;DHT22;6658;53.080;7.428;2023-07-29T15:48:14;22.50;99.90
13186;DHT22;6658;53.080;7.428;2023-07-29T15:50:41;22.40;99.90
13186;DHT22;6658;53.080;7.428;2023-07-29T15:53:06;22.30;99.90
13186;DHT22;6658;53.080;7.428;2023-07-29T15:55:32;22.40;99.90
13186;DHT22;6658;53.080;7.428;2023-07-29T15:57:58;22.50;99.90
13186;DHT22;6658;53.080;7.428;2023-07-29T16:00:23;22.50;99.90
13186;DHT22;6658;53.080;7.428;2023-07-29T16:02:49;22.60;99.90
13186;DHT22;6658;53.080;7.428;2023-07-29T16:05:15;22.70;99.90
13186;DHT22;6658;53.080;7.428;2023-07-29T16:07:41;22.70;99.90
13186;DHT22;6658;53.080;7.428;2023-07-29T16:10:10;22.60;99.90